createdAt,value
2023-01-17T00:00:07.666Z,1.50
2023-01-17T00:00:48.175Z,1.40
2023-01-17T00:01:29.599Z,1.60
2023-01-17T00:02:03.592Z,1.40
2023-01-17T00:02:37.336Z,1.50
2023-01-17T00:03:10.798Z,1.50
2023-01-17T00:04:03.570Z,1.50
2023-01-17T00:04:55.978Z,1.40
2023-01-17T00:05:48.017Z,1.70
2023-01-17T00:06:41.936Z,1.50
2023-01-17T00:07:56.857Z,1.50
2023-01-17T00:08:48.899Z,1.40
2023-01-17T00:09:41.051Z,1.50
2023-01-17T00:10:17.614Z,1.30
2023-01-17T00:10:51.015Z,1.40
2023-01-17T00:11:24.310Z,1.50
2023-01-17T00:11:59.223Z,1.40
2023-01-17T00:12:33.177Z,1.40
2023-01-17T00:13:06.609Z,1.30
2023-01-17T00:13:40.113Z,1.50
2023-01-17T00:14:13.488Z,1.40
2023-01-17T00:14:47.851Z,1.40
2023-01-17T00:15:23.068Z,1.30
2023-01-17T00:15:56.447Z,1.50
2023-01-17T00:16:29.909Z,1.50
2023-01-17T00:17:03.594Z,1.40
2023-01-17T00:17:36.981Z,1.30
2023-01-17T00:18:10.318Z,1.40
2023-01-17T00:19:03.806Z,1.40
2023-01-17T00:19:55.671Z,1.50
2023-01-17T00:20:49.469Z,1.50
2023-01-17T00:21:41.411Z,1.30
2023-01-17T00:22:50.991Z,1.20
2023-01-17T00:23:44.821Z,1.30
2023-01-17T00:24:36.818Z,1.50
2023-01-17T00:25:34.186Z,1.40
2023-01-17T00:26:15.350Z,1.50
2023-01-17T00:27:40.739Z,1.20
2023-01-17T00:28:14.145Z,1.60
2023-01-17T00:28:47.906Z,1.40
2023-01-17T00:29:21.244Z,1.60
2023-01-17T00:29:54.601Z,1.50
2023-01-17T00:30:29.158Z,1.60
2023-01-17T00:31:04.242Z,1.50
2023-01-17T00:31:37.642Z,1.60
2023-01-17T00:32:10.882Z,1.60
2023-01-17T00:32:44.209Z,1.80
2023-01-17T00:33:18.262Z,1.50
2023-01-17T00:33:51.564Z,1.50
2023-01-17T00:34:24.779Z,1.80
2023-01-17T00:34:58.197Z,1.60
2023-01-17T00:35:32.995Z,1.60
2023-01-17T00:36:07.137Z,1.30
2023-01-17T00:36:40.446Z,1.60
2023-01-17T00:37:13.719Z,1.60
2023-01-17T00:37:47.102Z,1.70
2023-01-17T00:38:22.926Z,1.60
2023-01-17T00:38:56.242Z,1.60
2023-01-17T00:39:29.492Z,1.70
2023-01-17T00:40:02.756Z,1.60
2023-01-17T00:40:38.347Z,1.60
2023-01-17T00:41:13.692Z,1.70
2023-01-17T00:41:46.982Z,1.50
2023-01-17T00:42:20.244Z,1.60
2023-01-17T00:42:53.579Z,1.70
2023-01-17T00:43:45.594Z,1.60
2023-01-17T00:44:37.868Z,1.80
2023-01-17T00:45:30.273Z,1.60
2023-01-17T00:46:23.418Z,1.50
2023-01-17T00:47:15.412Z,1.30
2023-01-17T00:48:07.497Z,1.50
2023-01-17T00:49:00.721Z,1.40
2023-01-17T00:49:52.692Z,1.60
2023-01-17T00:50:44.877Z,1.60
2023-01-17T00:51:37.725Z,1.50
2023-01-17T00:52:29.978Z,1.50
2023-01-17T00:53:26.026Z,1.60
2023-01-17T00:54:19.044Z,1.80
2023-01-17T00:55:11.062Z,1.50
2023-01-17T00:56:03.171Z,1.70
2023-01-17T00:56:55.529Z,1.60
2023-01-17T00:57:47.792Z,1.50
2023-01-17T00:58:39.704Z,1.60
2023-01-17T00:59:31.740Z,1.60
2023-01-17T01:00:24.139Z,1.60
2023-01-17T01:01:16.514Z,1.80
2023-01-17T01:02:09.062Z,1.70
2023-01-17T01:03:00.998Z,1.90
2023-01-17T01:03:53.356Z,1.70
2023-01-17T01:04:45.361Z,1.70
2023-01-17T01:05:37.616Z,1.70
2023-01-17T01:06:30.145Z,1.50
2023-01-17T01:07:25.187Z,1.90
2023-01-17T01:08:18.015Z,1.90
2023-01-17T01:09:10.912Z,1.70
2023-01-17T01:10:04.581Z,1.60
2023-01-17T01:10:58.710Z,1.70
2023-01-17T01:11:50.964Z,1.60
2023-01-17T01:12:46.214Z,1.80
2023-01-17T01:13:38.087Z,1.80
2023-01-17T01:14:30.116Z,1.70
2023-01-17T01:15:22.356Z,2.00
2023-01-17T01:16:14.696Z,1.70
2023-01-17T01:17:06.859Z,1.80
2023-01-17T01:17:58.813Z,1.80
2023-01-17T01:18:50.835Z,1.70
2023-01-17T01:19:43.104Z,2.00
2023-01-17T01:20:35.464Z,1.70
2023-01-17T01:21:27.781Z,1.60
2023-01-17T01:22:20.206Z,1.70
2023-01-17T01:23:12.315Z,1.50
2023-01-17T01:24:04.681Z,1.70
2023-01-17T01:24:56.691Z,1.70
2023-01-17T01:25:48.647Z,1.20
2023-01-17T01:26:41.457Z,1.70
2023-01-17T01:27:33.885Z,1.80
2023-01-17T01:28:29.361Z,1.60
2023-01-17T01:29:21.838Z,1.80
2023-01-17T01:30:13.872Z,1.70
2023-01-17T01:31:05.995Z,1.90
2023-01-17T01:31:57.808Z,1.80
2023-01-17T01:32:53.792Z,1.90
2023-01-17T01:33:27.082Z,1.70
2023-01-17T01:34:00.518Z,1.90
2023-01-17T01:34:34.092Z,1.80
2023-01-17T01:35:07.880Z,1.60
2023-01-17T01:35:42.190Z,1.80
2023-01-17T01:36:15.475Z,2.10
2023-01-17T01:36:48.946Z,2.10
2023-01-17T01:37:22.268Z,1.60
2023-01-17T01:37:55.717Z,2.00
2023-01-17T01:38:30.492Z,2.00
2023-01-17T01:39:06.157Z,1.90
2023-01-17T01:39:39.646Z,1.90
2023-01-17T01:40:16.534Z,2.30
2023-01-17T01:40:55.982Z,2.20
2023-01-17T01:41:30.039Z,2.20
2023-01-17T01:42:04.217Z,1.90
2023-01-17T01:42:37.979Z,2.00
2023-01-17T01:43:13.841Z,2.30
2023-01-17T01:43:53.148Z,2.30
2023-01-17T01:44:48.183Z,2.40
2023-01-17T01:45:28.782Z,2.20
2023-01-17T01:46:02.315Z,2.20
2023-01-17T01:46:40.060Z,2.30
2023-01-17T01:47:24.366Z,2.30
2023-01-17T01:48:03.655Z,2.20
2023-01-17T01:48:42.236Z,2.40
2023-01-17T01:49:22.144Z,2.10
2023-01-17T01:49:55.822Z,2.50
2023-01-17T01:50:33.943Z,2.00
2023-01-17T01:51:14.205Z,2.20
2023-01-17T01:52:03.623Z,2.30
2023-01-17T01:52:43.339Z,2.20
2023-01-17T01:53:19.830Z,2.30
2023-01-17T01:53:59.961Z,2.50
2023-01-17T01:54:43.100Z,2.30
2023-01-17T01:55:19.179Z,2.20
2023-01-17T01:55:53.223Z,2.20
2023-01-17T01:56:27.733Z,2.10
2023-01-17T01:57:04.020Z,2.10
2023-01-17T01:57:44.705Z,2.30
2023-01-17T01:58:28.751Z,2.10
2023-01-17T01:59:07.306Z,2.20
2023-01-17T01:59:46.323Z,2.30
2023-01-17T02:00:29.878Z,2.00
2023-01-17T02:01:04.450Z,2.10
2023-01-17T02:01:37.919Z,2.10
2023-01-17T02:02:11.442Z,2.00
2023-01-17T02:02:48.737Z,2.20
2023-01-17T02:03:27.955Z,2.20
2023-01-17T02:04:03.003Z,2.10
2023-01-17T02:04:37.312Z,2.10
2023-01-17T02:05:14.322Z,2.30
2023-01-17T02:05:48.127Z,1.90
2023-01-17T02:06:34.020Z,2.20
2023-01-17T02:07:14.135Z,2.50
2023-01-17T02:07:59.729Z,2.10
2023-01-17T02:08:33.695Z,2.30
2023-01-17T02:09:10.025Z,2.20
2023-01-17T02:09:43.881Z,2.50
2023-01-17T02:10:17.339Z,2.20
2023-01-17T02:10:51.368Z,2.30
2023-01-17T02:11:24.857Z,2.70
2023-01-17T02:11:58.586Z,2.20
2023-01-17T02:12:32.364Z,2.30
2023-01-17T02:13:07.295Z,2.00
2023-01-17T02:13:41.988Z,2.20
2023-01-17T02:14:17.207Z,2.30
2023-01-17T02:14:50.659Z,2.30
2023-01-17T02:15:42.075Z,2.40
2023-01-17T02:16:25.401Z,2.20
2023-01-17T02:17:28.974Z,2.30
2023-01-17T02:18:08.294Z,2.30
2023-01-17T02:19:03.057Z,2.40
2023-01-17T02:20:05.536Z,2.30
2023-01-17T02:20:58.869Z,2.40
2023-01-17T02:21:34.982Z,2.40
2023-01-17T02:22:20.406Z,2.20
2023-01-17T02:23:16.707Z,2.40
2023-01-17T02:24:18.206Z,2.30
2023-01-17T02:25:00.477Z,2.10
2023-01-17T02:25:41.595Z,2.40
2023-01-17T02:26:34.646Z,2.20
2023-01-17T02:28:00.872Z,2.00
2023-01-17T02:28:43.496Z,2.00
2023-01-17T02:29:45.837Z,2.20
2023-01-17T02:30:37.460Z,2.20
2023-01-17T02:31:16.863Z,2.40
2023-01-17T02:31:58.998Z,2.40
2023-01-17T02:33:01.975Z,2.50
2023-01-17T02:33:54.035Z,2.60
2023-01-17T02:34:48.966Z,2.50
2023-01-17T02:35:38.675Z,2.20
2023-01-17T02:36:44.968Z,2.20
2023-01-17T02:37:18.353Z,2.10
2023-01-17T02:38:00.758Z,1.90
2023-01-17T02:39:19.079Z,2.50
2023-01-17T02:40:05.183Z,2.30
2023-01-17T02:40:58.148Z,2.30
2023-01-17T02:41:37.093Z,2.00
2023-01-17T02:42:17.355Z,2.20
2023-01-17T02:42:58.276Z,2.40
2023-01-17T02:43:33.066Z,1.90
2023-01-17T02:44:11.399Z,2.10
2023-01-17T02:44:45.376Z,2.30
2023-01-17T02:45:20.394Z,2.10
2023-01-17T02:45:53.769Z,2.00
2023-01-17T02:46:27.310Z,2.30
2023-01-17T02:47:00.650Z,2.30
2023-01-17T02:47:34.396Z,2.50
2023-01-17T02:48:10.756Z,2.10
2023-01-17T02:48:45.182Z,1.90
2023-01-17T03:03:28.807Z,1.80
2023-01-17T03:04:27.725Z,1.40
2023-01-17T03:05:30.749Z,1.30
2023-01-17T03:06:13.149Z,1.40
2023-01-17T03:07:42.425Z,1.30
2023-01-17T03:08:30.330Z,1.00
2023-01-17T03:10:26.298Z,1.10
2023-01-17T03:11:07.611Z,1.40
2023-01-17T03:11:44.088Z,1.10
2023-01-17T03:12:30.752Z,1.30
2023-01-17T03:13:56.621Z,1.30
2023-01-17T03:14:48.345Z,1.10
2023-01-17T03:15:54.863Z,1.10
2023-01-17T03:16:43.759Z,1.30
2023-01-17T03:17:43.642Z,1.20
2023-01-17T03:18:38.013Z,1.10
2023-01-17T03:19:42.225Z,1.10
2023-01-17T03:20:45.539Z,1.10
2023-01-17T03:21:46.731Z,1.10
2023-01-17T03:22:21.684Z,1.20
2023-01-17T03:22:54.978Z,1.30
2023-01-17T03:23:27.266Z,1.20
2023-01-17T03:24:28.351Z,1.20
2023-01-17T03:25:06.741Z,1.30
2023-01-17T03:25:54.113Z,1.30
2023-01-17T03:26:26.463Z,1.40
2023-01-17T03:27:24.941Z,1.40
2023-01-17T03:28:14.257Z,1.40
2023-01-17T03:29:08.920Z,1.60
2023-01-17T03:30:37.648Z,1.70
2023-01-17T03:31:49.126Z,1.70
2023-01-17T03:32:55.597Z,1.40
2023-01-17T03:33:28.249Z,1.60
2023-01-17T03:34:24.981Z,1.60
2023-01-17T03:35:12.832Z,1.40
2023-01-17T03:36:10.404Z,1.30
2023-01-17T03:36:46.332Z,1.70
2023-01-17T03:37:39.369Z,1.50
2023-01-17T03:38:11.729Z,1.50
2023-01-17T03:38:52.243Z,1.50
2023-01-17T03:39:28.253Z,1.40
2023-01-17T03:40:41.056Z,1.60
2023-01-17T03:41:13.636Z,1.50
2023-01-17T03:41:50.581Z,1.30
2023-01-17T03:42:26.271Z,1.30
2023-01-17T03:42:58.724Z,1.40
2023-01-17T03:43:31.150Z,1.50
2023-01-17T03:44:28.294Z,1.20
2023-01-17T03:45:24.805Z,1.30
2023-01-17T03:46:22.705Z,1.20
2023-01-17T03:46:55.146Z,1.30
2023-01-17T03:47:27.407Z,1.20
2023-01-17T03:48:25.909Z,1.00
2023-01-17T03:49:23.513Z,1.10
2023-01-17T03:50:38.788Z,1.50
2023-01-17T03:51:19.983Z,1.20
2023-01-17T03:51:57.535Z,1.30
2023-01-17T03:52:42.972Z,1.10
2023-01-17T03:53:27.958Z,1.40
2023-01-17T03:54:59.641Z,1.40
2023-01-17T03:55:41.397Z,1.40
2023-01-17T03:56:30.040Z,1.00
2023-01-17T03:57:25.457Z,1.20
2023-01-17T03:58:58.181Z,1.30
2023-01-17T03:59:37.414Z,1.20
2023-01-17T04:00:30.116Z,1.20
2023-01-17T04:01:20.004Z,1.10
2023-01-17T04:02:32.855Z,1.10
2023-01-17T04:04:55.637Z,1.20
2023-01-17T04:05:31.452Z,1.20
2023-01-17T04:06:42.350Z,1.10
2023-01-17T04:07:19.201Z,1.00
2023-01-17T04:07:57.941Z,0.90
2023-01-17T04:08:30.281Z,1.20
2023-01-17T04:09:27.017Z,1.00
2023-01-17T04:10:42.479Z,1.20
2023-01-17T04:11:19.288Z,1.10
2023-01-17T04:13:03.901Z,1.10
2023-01-17T04:13:36.045Z,1.10
2023-01-17T04:14:08.227Z,1.20
2023-01-17T04:14:40.705Z,1.20
2023-01-17T04:15:13.008Z,1.10
2023-01-17T04:15:47.950Z,1.10
2023-01-17T04:16:24.083Z,1.10
2023-01-17T04:16:56.794Z,1.10
2023-01-17T04:17:28.904Z,1.00
2023-01-17T04:18:01.256Z,1.00
2023-01-17T04:18:33.664Z,1.10
2023-01-17T04:19:05.764Z,0.90
2023-01-17T04:19:37.992Z,1.10
2023-01-17T04:20:18.222Z,1.10
2023-01-17T04:20:51.108Z,1.00
2023-01-17T04:21:25.708Z,1.20
2023-01-17T04:21:57.731Z,1.00
2023-01-17T04:22:31.203Z,1.10
2023-01-17T04:23:04.191Z,1.00
2023-01-17T04:23:36.277Z,1.00
2023-01-17T04:24:08.419Z,1.10
2023-01-17T04:24:40.648Z,1.20
2023-01-17T04:25:12.893Z,1.10
2023-01-17T04:25:45.047Z,0.90
2023-01-17T04:26:17.367Z,1.10
2023-01-17T04:26:49.391Z,1.20
2023-01-17T04:27:21.502Z,1.00
2023-01-17T04:27:54.139Z,0.90
2023-01-17T04:28:26.666Z,1.20
2023-01-17T04:28:58.574Z,1.10
2023-01-17T04:29:30.659Z,1.10
2023-01-17T04:30:03.191Z,1.10
2023-01-17T04:30:35.326Z,1.00
2023-01-17T04:31:07.534Z,1.10
2023-01-17T04:31:39.610Z,0.90
2023-01-17T04:32:14.331Z,1.10
2023-01-17T04:32:46.512Z,0.90
2023-01-17T04:33:18.525Z,1.10
2023-01-17T04:33:50.551Z,1.80
2023-01-17T04:34:22.665Z,1.10
2023-01-17T04:34:54.751Z,1.10
2023-01-17T04:35:29.651Z,0.90
2023-01-17T04:36:01.607Z,1.10
2023-01-17T04:36:37.676Z,1.10
2023-01-17T04:37:09.826Z,1.10
2023-01-17T04:37:42.385Z,1.20
2023-01-17T04:38:14.407Z,0.90
2023-01-17T04:38:46.707Z,1.20
2023-01-17T04:39:18.843Z,1.10
2023-01-17T04:39:50.887Z,0.90
2023-01-17T04:40:23.336Z,0.80
2023-01-17T04:40:55.475Z,1.10
2023-01-17T04:41:27.497Z,1.10
2023-01-17T04:41:59.635Z,0.90
2023-01-17T04:42:31.769Z,1.10
2023-01-17T04:43:03.939Z,1.20
2023-01-17T04:43:36.019Z,1.00
2023-01-17T04:44:08.013Z,1.10
2023-01-17T04:44:40.138Z,1.30
2023-01-17T04:45:12.945Z,1.00
2023-01-17T04:45:44.914Z,1.50
2023-01-17T04:46:17.072Z,1.40
2023-01-17T04:46:49.120Z,1.10
2023-01-17T04:47:21.214Z,1.10
2023-01-17T04:47:53.346Z,1.20
2023-01-17T04:48:26.711Z,1.00
2023-01-17T04:49:00.024Z,0.90
2023-01-17T04:49:32.267Z,1.30
2023-01-17T04:50:04.897Z,0.90
2023-01-17T04:50:36.973Z,1.00
2023-01-17T04:51:09.069Z,1.20
2023-01-17T04:51:41.314Z,1.20
2023-01-17T04:52:14.604Z,1.10
2023-01-17T04:52:46.791Z,1.20
2023-01-17T04:53:18.852Z,1.10
2023-01-17T04:53:50.865Z,1.40
2023-01-17T04:54:22.879Z,1.10
2023-01-17T04:54:54.979Z,1.20
2023-01-17T04:55:27.103Z,1.40
2023-01-17T04:55:59.176Z,1.20
2023-01-17T04:56:31.205Z,1.20
2023-01-17T04:57:03.341Z,1.20
2023-01-17T04:57:35.594Z,1.00
2023-01-17T04:58:07.708Z,1.10
2023-01-17T04:58:39.737Z,1.30
2023-01-17T04:59:12.038Z,1.10
2023-01-17T04:59:45.736Z,1.20
2023-01-17T05:00:18.397Z,1.30
2023-01-17T05:00:51.307Z,1.20
2023-01-17T05:01:23.698Z,1.20
2023-01-17T05:01:55.894Z,1.20
2023-01-17T05:02:28.211Z,1.40
2023-01-17T05:03:00.339Z,1.10
2023-01-17T05:03:33.239Z,1.50
2023-01-17T05:04:05.408Z,1.20
2023-01-17T05:04:37.814Z,1.20
2023-01-17T05:05:12.987Z,1.40
2023-01-17T05:05:45.230Z,1.20
2023-01-17T05:06:17.408Z,1.30
2023-01-17T05:06:49.454Z,1.10
2023-01-17T05:07:21.547Z,1.20
2023-01-17T05:07:57.659Z,1.30
2023-01-17T05:08:29.839Z,1.20
2023-01-17T05:09:02.545Z,1.20
2023-01-17T05:09:34.780Z,1.30
2023-01-17T05:10:07.266Z,1.10
2023-01-17T05:10:39.436Z,1.40
2023-01-17T05:11:12.487Z,1.20
2023-01-17T05:11:44.546Z,1.10
2023-01-17T05:12:16.660Z,1.00
2023-01-17T05:12:55.523Z,1.20
2023-01-17T05:13:27.540Z,1.00
2023-01-17T05:13:59.857Z,1.20
2023-01-17T05:14:34.681Z,1.20
2023-01-17T05:15:07.223Z,1.20
2023-01-17T05:15:39.608Z,1.00
2023-01-17T05:16:11.781Z,1.00
2023-01-17T05:16:43.860Z,1.00
2023-01-17T05:17:15.987Z,1.40
2023-01-17T05:17:48.077Z,1.10
2023-01-17T05:18:20.293Z,1.20
2023-01-17T05:18:53.558Z,1.20
2023-01-17T05:19:26.552Z,1.30
2023-01-17T05:19:58.689Z,1.20
2023-01-17T05:20:31.030Z,1.10
2023-01-17T05:21:06.473Z,1.10
2023-01-17T05:21:38.778Z,1.10
2023-01-17T05:22:14.716Z,1.20
2023-01-17T05:22:55.370Z,1.10
2023-01-17T05:23:27.514Z,1.20
2023-01-17T05:23:59.488Z,1.30
2023-01-17T05:24:31.875Z,1.10
2023-01-17T05:25:04.163Z,1.10
2023-01-17T05:25:36.343Z,1.10
2023-01-17T05:26:08.930Z,1.10
2023-01-17T05:26:42.551Z,1.30
2023-01-17T05:27:14.954Z,0.90
2023-01-17T05:27:47.236Z,1.00
2023-01-17T05:28:19.549Z,1.00
2023-01-17T05:28:51.853Z,1.10
2023-01-17T05:29:23.883Z,0.90
2023-01-17T05:29:58.385Z,1.10
2023-01-17T05:30:32.872Z,1.20
2023-01-17T05:31:05.412Z,1.20
2023-01-17T05:31:37.779Z,1.10
2023-01-17T05:32:09.879Z,1.10
2023-01-17T05:32:44.937Z,1.10
2023-01-17T05:33:17.006Z,1.10
2023-01-17T05:33:49.078Z,1.10
2023-01-17T05:34:23.743Z,1.00
2023-01-17T05:34:55.938Z,1.00
2023-01-17T05:35:32.045Z,1.30
2023-01-17T05:36:04.355Z,1.10
2023-01-17T05:36:36.803Z,1.00
2023-01-17T05:37:09.292Z,1.10
2023-01-17T05:37:48.596Z,1.10
2023-01-17T05:38:22.109Z,1.20
2023-01-17T05:38:54.124Z,1.00
2023-01-17T05:39:26.685Z,1.10
2023-01-17T05:39:58.942Z,0.90
2023-01-17T05:40:32.625Z,1.10
2023-01-17T05:41:05.329Z,1.10
2023-01-17T05:41:40.469Z,1.10
2023-01-17T05:42:12.514Z,1.00
2023-01-17T05:42:48.805Z,1.10
2023-01-17T05:43:22.331Z,1.10
2023-01-17T05:43:54.421Z,0.90
2023-01-17T05:44:27.177Z,1.10
2023-01-17T05:44:59.251Z,0.90
2023-01-17T05:45:33.183Z,1.10
2023-01-17T05:46:05.599Z,1.10
2023-01-17T05:46:37.885Z,1.10
2023-01-17T05:47:10.082Z,1.10
2023-01-17T05:47:50.536Z,1.10
2023-01-17T05:48:22.684Z,1.10
2023-01-17T05:48:54.847Z,1.20
2023-01-17T05:49:26.969Z,1.20
2023-01-17T05:49:59.108Z,1.20
2023-01-17T05:50:36.672Z,1.10
2023-01-17T05:51:09.006Z,0.90
2023-01-17T05:51:41.236Z,1.10
2023-01-17T05:52:18.537Z,1.10
2023-01-17T05:53:02.135Z,1.20
2023-01-17T05:54:13.457Z,1.00
2023-01-17T05:55:42.297Z,0.80
2023-01-17T05:56:25.498Z,0.90
2023-01-17T05:57:06.633Z,1.10
2023-01-17T05:58:00.167Z,1.10
2023-01-17T05:58:41.503Z,1.20
2023-01-17T05:59:37.071Z,1.10
2023-01-17T06:01:31.091Z,1.00
2023-01-17T06:02:26.902Z,1.00
2023-01-17T06:03:59.088Z,1.20
2023-01-17T06:04:38.290Z,1.40
2023-01-17T06:05:18.143Z,1.00
2023-01-17T06:05:50.661Z,0.90
2023-01-17T06:06:27.846Z,1.20
2023-01-17T06:07:23.305Z,1.00
2023-01-17T06:07:58.195Z,1.00
2023-01-17T06:08:36.017Z,1.10
2023-01-17T06:09:12.963Z,1.00
2023-01-17T06:10:25.637Z,0.70
2023-01-17T06:10:59.171Z,0.90
2023-01-17T06:12:26.678Z,1.10
2023-01-17T06:13:24.833Z,1.00
2023-01-17T06:14:31.777Z,1.00
2023-01-17T06:15:27.005Z,0.70
2023-01-17T06:16:13.276Z,1.00
2023-01-17T06:16:57.302Z,1.10
2023-01-17T06:17:38.829Z,1.00
2023-01-17T06:18:38.216Z,1.00
2023-01-17T06:19:13.514Z,0.90
2023-01-17T06:19:50.865Z,0.90
2023-01-17T06:20:37.893Z,0.90
2023-01-17T06:21:37.354Z,1.00
2023-01-17T06:22:18.004Z,1.10
2023-01-17T06:22:50.914Z,1.10
2023-01-17T06:23:29.816Z,0.80
2023-01-17T06:24:29.965Z,1.00
2023-01-17T06:25:18.999Z,1.00
2023-01-17T06:27:26.091Z,1.20
2023-01-17T06:28:41.146Z,1.10
2023-01-17T06:29:30.825Z,1.10
2023-01-17T06:30:28.795Z,1.10
2023-01-17T06:31:07.505Z,0.90
2023-01-17T06:31:56.405Z,1.10
2023-01-17T06:32:31.159Z,0.90
2023-01-17T06:33:12.765Z,1.00
2023-01-17T06:34:53.579Z,1.10
2023-01-17T06:35:33.649Z,1.10
2023-01-17T06:36:18.579Z,1.00
2023-01-17T06:36:50.861Z,1.10
2023-01-17T06:37:33.733Z,1.10
2023-01-17T06:38:11.653Z,1.10
2023-01-17T06:39:26.956Z,1.10
2023-01-17T06:39:59.307Z,1.10
2023-01-17T06:40:54.052Z,1.00
2023-01-17T06:41:29.759Z,0.90
2023-01-17T06:42:06.877Z,1.00
2023-01-17T06:43:22.122Z,0.90
2023-01-17T06:44:27.895Z,1.10
2023-01-17T06:45:07.635Z,1.20
2023-01-17T06:45:41.911Z,1.10
2023-01-17T06:46:23.282Z,1.10
2023-01-17T06:46:57.610Z,0.90
2023-01-17T06:47:30.069Z,1.00
2023-01-17T06:48:08.787Z,1.00
2023-01-17T06:49:01.933Z,1.10
2023-01-17T06:49:44.855Z,1.10
2023-01-17T06:50:30.293Z,0.90
2023-01-17T06:51:05.987Z,1.20
2023-01-17T06:51:54.691Z,1.10
2023-01-17T06:52:42.526Z,1.00
2023-01-17T06:53:37.535Z,1.00
2023-01-17T06:54:09.924Z,1.20
2023-01-17T06:54:46.725Z,1.10
2023-01-17T06:55:41.387Z,1.00
2023-01-17T06:56:27.528Z,0.80
2023-01-17T06:58:29.936Z,1.00
2023-01-17T06:59:19.267Z,0.90
2023-01-17T06:59:51.669Z,1.00
2023-01-17T07:00:41.352Z,0.90
2023-01-17T07:01:15.438Z,0.90
2023-01-17T07:01:50.734Z,1.00
2023-01-17T07:02:28.874Z,1.00
2023-01-17T07:03:12.279Z,1.10
2023-01-17T07:03:55.315Z,1.00
2023-01-17T07:04:42.888Z,1.00
2023-01-17T07:05:29.856Z,1.20
2023-01-17T07:06:09.532Z,1.20
2023-01-17T07:06:57.009Z,1.20
2023-01-17T07:07:38.742Z,1.10
2023-01-17T07:08:11.341Z,1.40
2023-01-17T07:08:44.400Z,1.30
2023-01-17T07:09:39.836Z,1.50
2023-01-17T07:10:51.666Z,1.60
2023-01-17T07:11:30.256Z,1.50
2023-01-17T07:12:19.822Z,1.50
2023-01-17T07:13:03.600Z,1.10
2023-01-17T07:13:58.834Z,1.30
2023-01-17T07:14:45.906Z,1.30
2023-01-17T07:15:31.873Z,1.30
2023-01-17T07:16:12.411Z,1.30
2023-01-17T07:17:10.031Z,1.70
2023-01-17T07:18:11.568Z,1.40
2023-01-17T07:18:45.416Z,1.70
2023-01-17T07:19:26.280Z,1.30
2023-01-17T07:20:26.368Z,1.40
2023-01-17T07:21:27.101Z,1.40
2023-01-17T07:21:59.681Z,1.40
2023-01-17T07:22:39.964Z,1.40
2023-01-17T07:23:12.931Z,1.30
2023-01-17T07:24:10.397Z,1.30
2023-01-17T07:24:42.615Z,1.20
2023-01-17T07:25:48.599Z,1.30
2023-01-17T07:26:46.009Z,1.10
2023-01-17T07:27:24.118Z,1.10
2023-01-17T07:28:16.940Z,1.50
2023-01-17T07:28:50.076Z,1.10
2023-01-17T07:29:31.759Z,1.20
2023-01-17T07:30:55.814Z,1.60
2023-01-17T07:31:39.888Z,1.50
2023-01-17T07:32:26.814Z,1.80
2023-01-17T07:33:24.024Z,1.50
2023-01-17T07:34:07.646Z,1.70
2023-01-17T07:34:40.176Z,1.90
2023-01-17T07:35:12.680Z,1.80
2023-01-17T07:37:19.502Z,1.70
2023-01-17T07:38:09.239Z,1.70
2023-01-17T07:39:13.734Z,1.80
2023-01-17T07:41:14.353Z,1.70
2023-01-17T07:42:11.694Z,1.70
2023-01-17T07:43:13.928Z,1.80
2023-01-17T07:44:01.481Z,1.70
2023-01-17T07:44:45.608Z,1.80
2023-01-17T07:45:42.714Z,1.90
2023-01-17T07:46:19.030Z,1.60
2023-01-17T07:47:21.888Z,1.70
2023-01-17T07:48:29.495Z,1.70
2023-01-17T07:49:13.698Z,1.40
2023-01-17T07:49:51.534Z,1.60
2023-01-17T07:50:27.463Z,1.50
2023-01-17T07:51:09.536Z,1.40
2023-01-17T07:51:55.022Z,1.50
2023-01-17T07:52:40.124Z,1.60
2023-01-17T07:53:12.477Z,1.60
2023-01-17T07:53:44.950Z,1.70
2023-01-17T07:54:30.837Z,1.50
2023-01-17T07:55:14.059Z,1.50
2023-01-17T07:56:18.801Z,1.30
2023-01-17T07:56:51.235Z,1.60
2023-01-17T07:57:27.787Z,1.40
2023-01-17T07:58:02.276Z,1.50
2023-01-17T07:58:39.165Z,1.40
2023-01-17T07:59:24.033Z,1.50
2023-01-17T08:00:28.589Z,1.40
2023-01-17T08:01:19.443Z,1.30
2023-01-17T08:01:52.301Z,1.40
2023-01-17T08:02:30.918Z,1.40
2023-01-17T08:03:08.390Z,1.40
2023-01-17T08:04:12.258Z,1.40
2023-01-17T08:04:59.101Z,1.40
2023-01-17T08:05:31.443Z,1.30
2023-01-17T08:06:09.360Z,1.60
2023-01-17T08:06:46.691Z,1.40
2023-01-17T08:07:26.677Z,1.40
2023-01-17T08:08:09.223Z,1.50
2023-01-17T08:09:05.107Z,1.30
2023-01-17T08:09:51.924Z,1.10
2023-01-17T08:10:29.819Z,1.40
2023-01-17T08:11:18.991Z,1.70
2023-01-17T08:11:51.766Z,1.20
2023-01-17T08:13:21.447Z,1.00
2023-01-17T08:14:10.992Z,1.20
2023-01-17T08:14:49.560Z,1.20
2023-01-17T08:15:28.223Z,1.40
2023-01-17T08:16:12.662Z,1.50
2023-01-17T08:16:56.156Z,1.20
2023-01-17T08:17:28.713Z,1.20
2023-01-17T08:18:27.790Z,1.20
2023-01-17T08:19:00.114Z,1.30
2023-01-17T08:19:49.668Z,1.00
2023-01-17T08:20:27.987Z,1.10
2023-01-17T08:21:29.295Z,1.10
2023-01-17T08:22:06.025Z,1.40
2023-01-17T08:22:38.926Z,1.00
2023-01-17T08:24:29.743Z,1.10
2023-01-17T08:25:04.907Z,1.20
2023-01-17T08:25:43.228Z,1.10
2023-01-17T08:26:28.273Z,1.00
2023-01-17T08:27:11.175Z,1.00
2023-01-17T08:27:56.714Z,0.90
2023-01-17T08:28:43.938Z,1.10
2023-01-17T08:29:27.724Z,1.10
2023-01-17T08:30:25.196Z,1.00
2023-01-17T08:31:43.319Z,1.10
2023-01-17T08:32:23.415Z,1.10
2023-01-17T08:32:56.235Z,1.20
2023-01-17T08:33:38.171Z,1.10
2023-01-17T08:34:13.871Z,1.10
2023-01-17T08:35:27.589Z,1.00
2023-01-17T08:35:59.877Z,1.10
2023-01-17T08:36:49.927Z,1.10
2023-01-17T08:37:31.476Z,1.00
2023-01-17T08:38:36.156Z,1.20
2023-01-17T08:39:19.691Z,1.20
2023-01-17T08:39:57.605Z,1.10
2023-01-17T08:40:43.175Z,1.30
2023-01-17T08:41:26.691Z,1.10
2023-01-17T08:42:11.517Z,1.20
2023-01-17T08:43:07.801Z,1.20
2023-01-17T08:44:28.116Z,1.20
2023-01-17T08:45:29.656Z,1.10
2023-01-17T08:46:08.340Z,1.10
2023-01-17T08:46:50.328Z,1.20
2023-01-17T08:47:29.987Z,1.00
2023-01-17T08:48:31.636Z,1.10
2023-01-17T08:49:19.057Z,1.10
2023-01-17T08:50:43.902Z,1.20
2023-01-17T08:51:26.709Z,1.20
2023-01-17T08:51:58.988Z,1.10
2023-01-17T08:52:31.294Z,1.20
2023-01-17T08:53:25.183Z,1.00
2023-01-17T08:53:59.642Z,1.10
2023-01-17T08:54:38.448Z,1.00
2023-01-17T08:55:17.623Z,1.00
2023-01-17T08:56:01.787Z,1.00
2023-01-17T08:56:49.806Z,1.20
2023-01-17T08:57:37.682Z,1.10
2023-01-17T08:58:30.683Z,1.10
2023-01-17T08:59:13.626Z,1.20
2023-01-17T09:00:48.861Z,1.20
2023-01-17T09:01:21.396Z,1.10
2023-01-17T09:01:56.505Z,1.10
2023-01-17T09:02:31.178Z,1.00
2023-01-17T09:03:19.307Z,1.20
2023-01-17T09:03:58.658Z,1.00
2023-01-17T09:05:25.524Z,1.10
2023-01-17T09:07:01.550Z,1.10
2023-01-17T09:07:59.475Z,1.20
2023-01-17T09:08:59.422Z,1.30
2023-01-17T09:09:33.219Z,1.20
2023-01-17T09:10:31.367Z,1.20
2023-01-17T09:11:20.185Z,1.00
2023-01-17T09:13:18.885Z,1.10
2023-01-17T09:13:53.319Z,1.30
2023-01-17T09:14:27.446Z,1.40
2023-01-17T09:15:12.281Z,1.10
2023-01-17T09:16:22.672Z,1.50
2023-01-17T09:17:14.480Z,1.30
2023-01-17T09:18:09.258Z,1.40
2023-01-17T09:18:41.494Z,1.10
2023-01-17T09:19:13.776Z,1.30
2023-01-17T09:19:54.100Z,1.10
2023-01-17T09:20:38.493Z,1.20
2023-01-17T09:21:54.100Z,1.30
2023-01-17T09:22:31.641Z,1.20
2023-01-17T09:23:21.432Z,1.10
2023-01-17T09:24:19.153Z,1.40
2023-01-17T09:25:21.274Z,1.00
2023-01-17T09:34:49.792Z,1.10
2023-01-17T09:35:43.281Z,1.10
2023-01-17T09:35:54.618Z,1.10
2023-01-17T09:36:40.777Z,1.10
2023-01-17T09:37:31.808Z,1.10
2023-01-17T09:38:30.310Z,1.20
2023-01-17T09:39:31.196Z,1.20
2023-01-17T09:49:49.036Z,1.10
2023-01-17T10:00:08.100Z,1.70
2023-01-17T10:01:18.115Z,1.40
2023-01-17T10:02:50.923Z,1.50
2023-01-17T10:04:51.960Z,1.90
2023-01-17T10:05:45.955Z,2.00
2023-01-17T10:06:59.944Z,1.90
2023-01-17T10:08:59.881Z,1.90
2023-01-17T10:09:48.383Z,1.90
2023-01-17T10:10:41.498Z,1.70
2023-01-17T10:17:24.561Z,1.80
2023-01-17T10:18:30.505Z,1.90
2023-01-17T10:19:18.800Z,1.80
2023-01-17T10:19:57.889Z,2.10
2023-01-17T10:21:41.499Z,1.70
2023-01-17T10:22:37.421Z,1.80
2023-01-17T10:23:30.622Z,1.90
2023-01-17T10:24:43.493Z,1.90
2023-01-17T10:25:42.643Z,1.80
2023-01-17T10:26:30.110Z,1.90
2023-01-17T10:27:28.111Z,1.80
2023-01-17T10:28:28.682Z,1.80
2023-01-17T10:29:29.424Z,1.90
2023-01-17T10:31:46.585Z,1.90
2023-01-17T10:32:26.861Z,2.00
2023-01-17T10:39:16.799Z,2.00
2023-01-17T10:46:41.184Z,1.80
2023-01-17T10:52:52.342Z,1.70
2023-01-17T10:53:51.313Z,1.60
2023-01-17T10:54:43.987Z,1.90
2023-01-17T10:57:59.349Z,1.90
2023-01-17T10:58:31.994Z,1.70
2023-01-17T11:01:21.101Z,1.70
2023-01-17T11:01:59.795Z,1.80
2023-01-17T11:02:46.360Z,1.70
2023-01-17T11:03:28.153Z,1.70
2023-01-17T11:04:28.498Z,1.90
2023-01-17T11:05:31.770Z,1.70
2023-01-17T11:06:24.767Z,1.70
2023-01-17T11:07:29.817Z,1.70
2023-01-17T11:08:13.141Z,1.80
2023-01-17T11:08:58.153Z,1.80